Time;durP1;ratioP1;P1;durP2;ratioP2;P2;SDS_P1;SDS_P2;PMS_P1;PMS_P2;Temp;Humidity;BMP_temperature;BMP_pressure;BME280_temperature;BME280_humidity;BME280_pressure;Samples;Min_cycle;Max_cycle;Signal;HPM_P1;HPM_P2
2021/01/11 00:01:46;;;;;;;11.57;6.30;;;;;;;;;;5037949;28;20042;-77
2021/01/11 00:04:12;;;;;;;11.98;6.95;;;;;;;;;;5040851;28;20056;-77
2021/01/11 00:06:44;;;;;;;13.15;6.50;;;;;;;;;;5031488;28;20087;-77
2021/01/11 00:09:10;;;;;;;10.15;6.07;;;;;;;;;;5038894;28;20049;-77
2021/01/11 00:11:38;;;;;;;10.60;6.20;;;;;;;;;;5033053;28;20044;-77
2021/01/11 00:14:05;;;;;;;13.20;6.18;;;;;;;;;;5029231;28;20111;-75
2021/01/11 00:16:31;;;;;;;11.48;6.53;;;;;;;;;;5043551;28;20056;-75
2021/01/11 00:18:57;;;;;;;9.48;5.93;;;;;;;;;;5044344;28;20049;-75
2021/01/11 00:21:24;;;;;;;9.80;6.03;;;;;;;;;;5035493;28;20041;-74
2021/01/11 00:23:50;;;;;;;11.75;6.18;;;;;;;;;;5038036;28;20120;-74
2021/01/11 00:26:17;;;;;;;9.32;6.05;;;;;;;;;;5037268;28;20049;-75
2021/01/11 00:28:45;;;;;;;10.23;6.10;;;;;;;;;;5038573;28;20503;-74
2021/01/11 00:31:11;;;;;;;10.00;5.38;;;;;;;;;;5038753;28;20044;-74
2021/01/11 00:33:38;;;;;;;10.38;6.22;;;;;;;;;;5047991;28;20558;-73
2021/01/11 00:36:12;;;;;;;10.52;6.25;;;;;;;;;;5037104;28;20132;-73
2021/01/11 00:38:38;;;;;;;11.80;6.20;;;;;;;;;;5039544;28;20045;-72
2021/01/11 00:41:07;;;;;;;10.77;5.57;;;;;;;;;;5037348;28;20750;-72
2021/01/11 00:43:33;;;;;;;8.93;5.53;;;;;;;;;;5049772;28;20044;-73
2021/01/11 00:46:00;;;;;;;9.57;5.22;;;;;;;;;;5041583;28;20124;-73
2021/01/11 00:48:26;;;;;;;9.20;5.68;;;;;;;;;;5040662;28;20690;-74
2021/01/11 00:50:55;;;;;;;8.43;5.57;;;;;;;;;;5041254;28;20045;-73
2021/01/11 00:53:21;;;;;;;8.82;5.00;;;;;;;;;;5032314;28;20056;-74
2021/01/11 00:55:50;;;;;;;10.85;5.60;;;;;;;;;;5037682;28;20141;-74
2021/01/11 00:58:17;;;;;;;10.70;6.18;;;;;;;;;;5042086;28;20063;-73
2021/01/11 01:00:43;;;;;;;11.75;5.28;;;;;;;;;;5035239;28;20063;-73
2021/01/11 01:03:09;;;;;;;9.90;6.30;;;;;;;;;;5036757;28;20087;-74
2021/01/11 01:05:35;;;;;;;10.25;6.40;;;;;;;;;;5040692;28;20041;-75
2021/01/11 01:08:02;;;;;;;5.97;4.30;;;;;;;;;;5039098;28;20064;-75
2021/01/11 01:10:28;;;;;;;9.40;5.13;;;;;;;;;;5035936;28;20411;-74
2021/01/11 01:12:54;;;;;;;8.73;5.82;;;;;;;;;;5039953;28;20080;-75
2021/01/11 01:15:20;;;;;;;8.75;5.53;;;;;;;;;;5036767;28;20517;-75
2021/01/11 01:17:49;;;;;;;10.85;5.82;;;;;;;;;;5035717;28;20037;-74
2021/01/11 01:20:16;;;;;;;9.10;5.57;;;;;;;;;;5034763;28;20135;-75
2021/01/11 01:22:43;;;;;;;9.02;4.75;;;;;;;;;;5042393;28;20930;-74
2021/01/11 01:25:09;;;;;;;7.35;4.63;;;;;;;;;;5032697;28;20657;-76
2021/01/11 01:27:35;;;;;;;8.15;4.40;;;;;;;;;;5042442;28;20041;-75
2021/01/11 01:30:01;;;;;;;8.20;5.35;;;;;;;;;;5037837;28;20495;-74
2021/01/11 01:32:27;;;;;;;9.52;5.20;;;;;;;;;;5037748;28;20041;-74
2021/01/11 01:34:54;;;;;;;8.43;5.15;;;;;;;;;;5033690;28;20045;-72
2021/01/11 01:37:23;;;;;;;7.78;4.68;;;;;;;;;;5038456;28;20049;-76
2021/01/11 01:39:49;;;;;;;9.35;5.20;;;;;;;;;;5038323;28;20065;-82
2021/01/11 01:42:15;;;;;;;7.32;4.63;;;;;;;;;;5039847;28;20403;-80
2021/01/11 01:44:42;;;;;;;9.30;4.85;;;;;;;;;;5038164;28;20068;-80
2021/01/11 01:47:08;;;;;;;8.80;5.07;;;;;;;;;;5040141;28;20392;-79
2021/01/11 01:49:35;;;;;;;9.15;5.22;;;;;;;;;;5037876;28;20042;-78
2021/01/11 01:52:06;;;;;;;6.93;4.57;;;;;;;;;;5048039;28;20064;-80
2021/01/11 01:54:33;;;;;;;9.65;4.43;;;;;;;;;;5035411;28;20152;-79
2021/01/11 01:56:59;;;;;;;9.15;4.78;;;;;;;;;;5039507;28;20469;-79
2021/01/11 01:59:27;;;;;;;9.23;5.07;;;;;;;;;;5044256;28;20433;-81
2021/01/11 02:01:53;;;;;;;7.53;4.85;;;;;;;;;;5036262;28;20049;-80
2021/01/11 02:04:20;;;;;;;6.88;4.22;;;;;;;;;;5039802;28;20053;-80
2021/01/11 02:06:49;;;;;;;7.15;4.40;;;;;;;;;;5040241;28;20037;-79
2021/01/11 02:09:18;;;;;;;9.05;5.13;;;;;;;;;;5051191;28;20059;-80
2021/01/11 02:11:54;;;;;;;6.90;4.30;;;;;;;;;;5036210;28;20048;-80
2021/01/11 02:14:39;;;;;;;8.05;4.78;;;;;;;;;;5040023;28;20053;-79
2021/01/11 02:17:11;;;;;;;6.80;4.43;;;;;;;;;;5041106;28;20057;-79
2021/01/11 02:19:56;;;;;;;6.80;4.25;;;;;;;;;;5038776;28;20455;-79
2021/01/11 02:22:26;;;;;;;6.80;4.15;;;;;;;;;;5038541;28;20094;-80
2021/01/11 02:25:05;;;;;;;7.30;4.10;;;;;;;;;;5037660;28;20057;-79
2021/01/11 02:27:54;;;;;;;6.30;3.65;;;;;;;;;;5035953;28;20096;-79
2021/01/11 02:30:25;;;;;;;6.80;4.18;;;;;;;;;;5036634;28;20049;-80
2021/01/11 02:33:00;;;;;;;6.63;4.32;;;;;;;;;;5038913;28;20079;-80
2021/01/11 02:35:30;;;;;;;7.47;3.90;;;;;;;;;;5047181;28;20073;-80
2021/01/11 02:37:58;;;;;;;8.13;4.00;;;;;;;;;;5040595;28;20086;-82
2021/01/11 02:40:25;;;;;;;6.65;3.45;;;;;;;;;;5035712;28;20050;-81
2021/01/11 02:42:51;;;;;;;6.18;3.60;;;;;;;;;;5042698;28;20037;-81
2021/01/11 02:45:17;;;;;;;6.43;3.65;;;;;;;;;;5035886;28;20076;-81
2021/01/11 02:47:55;;;;;;;6.10;3.65;;;;;;;;;;5037452;28;20037;-81
2021/01/11 02:50:23;;;;;;;5.93;3.90;;;;;;;;;;5042284;28;20049;-82
2021/01/11 02:52:52;;;;;;;7.07;4.05;;;;;;;;;;5033638;28;20049;-82
2021/01/11 02:55:22;;;;;;;6.60;4.10;;;;;;;;;;5040637;28;20063;-81
2021/01/11 02:57:56;;;;;;;5.00;3.88;;;;;;;;;;5040230;28;20144;-82
2021/01/11 03:00:22;;;;;;;7.72;4.15;;;;;;;;;;5033631;28;20610;-81
2021/01/11 03:02:49;;;;;;;7.22;3.80;;;;;;;;;;5041438;28;20132;-81
2021/01/11 03:05:15;;;;;;;6.35;3.97;;;;;;;;;;5036613;28;20128;-81
2021/01/11 03:07:54;;;;;;;6.05;3.70;;;;;;;;;;5038558;28;20034;-80
2021/01/11 03:10:20;;;;;;;7.30;3.67;;;;;;;;;;5035110;28;20060;-80
2021/01/11 03:12:47;;;;;;;6.65;3.33;;;;;;;;;;5032669;28;20301;-80
2021/01/11 03:15:16;;;;;;;8.27;3.95;;;;;;;;;;5039886;28;20503;-79
2021/01/11 03:17:43;;;;;;;5.88;3.65;;;;;;;;;;5039577;28;20054;-78
2021/01/11 03:20:16;;;;;;;5.45;3.35;;;;;;;;;;5042661;28;20049;-78
2021/01/11 03:22:42;;;;;;;5.20;3.25;;;;;;;;;;5037929;28;20134;-79
2021/01/11 03:25:11;;;;;;;5.07;3.40;;;;;;;;;;5035268;28;20131;-78
2021/01/11 03:27:37;;;;;;;6.78;3.60;;;;;;;;;;5033963;28;20103;-79
2021/01/11 03:30:05;;;;;;;5.18;3.10;;;;;;;;;;5037021;28;20046;-80
2021/01/11 03:32:32;;;;;;;5.28;3.25;;;;;;;;;;5032374;28;20056;-81
2021/01/11 03:34:58;;;;;;;5.75;3.25;;;;;;;;;;5035542;28;20136;-82
2021/01/11 03:37:24;;;;;;;6.13;3.50;;;;;;;;;;5032911;28;20045;-82
2021/01/11 03:39:50;;;;;;;6.07;3.15;;;;;;;;;;5036568;28;20042;-82
2021/01/11 03:42:44;;;;;;;5.25;3.13;;;;;;;;;;5188233;22;20038;-81
2021/01/11 03:45:15;;;;;;;5.57;3.03;;;;;;;;;;5068462;28;20143;-82
2021/01/11 03:48:02;;;;;;;5.82;3.33;;;;;;;;;;5068521;28;20052;-82
2021/01/11 03:50:41;;;;;;;5.13;3.42;;;;;;;;;;5069957;28;20132;-82
2021/01/11 03:53:14;;;;;;;4.93;2.80;;;;;;;;;;5067292;28;20044;-83
2021/01/11 03:55:40;;;;;;;5.70;3.08;;;;;;;;;;5067174;28;20056;-83
2021/01/11 03:58:08;;;;;;;4.45;2.53;;;;;;;;;;5075153;28;20052;-82
2021/01/11 04:00:37;;;;;;;4.45;2.75;;;;;;;;;;5073002;28;20705;-82
2021/01/11 04:03:04;;;;;;;5.30;3.60;;;;;;;;;;5067767;28;20052;-82
2021/01/11 04:05:30;;;;;;;4.93;2.55;;;;;;;;;;5072431;28;20550;-82
2021/01/11 04:07:56;;;;;;;4.38;2.80;;;;;;;;;;5065783;28;20050;-82
2021/01/11 04:10:24;;;;;;;4.90;2.83;;;;;;;;;;5071105;28;20049;-82
2021/01/11 04:12:50;;;;;;;4.13;2.67;;;;;;;;;;5065725;28;20425;-83
2021/01/11 04:15:17;;;;;;;4.93;2.58;;;;;;;;;;5066241;28;20160;-83
2021/01/11 04:17:43;;;;;;;5.10;3.25;;;;;;;;;;5064397;28;20041;-82
2021/01/11 04:20:12;;;;;;;4.65;2.85;;;;;;;;;;5062372;28;20145;-81
2021/01/11 04:22:40;;;;;;;4.10;2.63;;;;;;;;;;5060115;28;20048;-82
2021/01/11 04:25:06;;;;;;;4.05;2.40;;;;;;;;;;5061822;28;20555;-80
2021/01/11 04:27:32;;;;;;;3.50;2.15;;;;;;;;;;5060329;28;20513;-82
2021/01/11 04:29:58;;;;;;;5.65;2.92;;;;;;;;;;5061689;28;20554;-83
2021/01/11 04:32:27;;;;;;;3.10;2.13;;;;;;;;;;5064865;28;20080;-83
2021/01/11 04:34:54;;;;;;;5.40;2.50;;;;;;;;;;5068317;28;20052;-84
2021/01/11 04:37:20;;;;;;;4.03;2.22;;;;;;;;;;5057122;28;20045;-84
2021/01/11 04:39:46;;;;;;;4.65;2.35;;;;;;;;;;5064623;28;20418;-84
2021/01/11 04:42:16;;;;;;;4.65;2.72;;;;;;;;;;5065321;28;20538;-83
2021/01/11 04:44:42;;;;;;;;;;;;;;;;;;5066510;28;20041;-85
2021/01/11 04:47:09;;;;;;;3.15;2.15;;;;;;;;;;5064027;28;19978;-85
2021/01/11 04:49:36;;;;;;;4.50;2.25;;;;;;;;;;5061532;28;20495;-83
2021/01/11 04:52:04;;;;;;;4.47;2.05;;;;;;;;;;5062736;28;20045;-83
2021/01/11 04:54:33;;;;;;;4.22;2.28;;;;;;;;;;5059005;28;20135;-83
2021/01/11 04:57:00;;;;;;;4.20;2.25;;;;;;;;;;5066678;28;20047;-83
2021/01/11 04:59:26;;;;;;;5.03;2.10;;;;;;;;;;5063600;28;20613;-84
2021/01/11 05:01:53;;;;;;;3.88;2.33;;;;;;;;;;5063982;28;20055;-82
2021/01/11 05:04:21;;;;;;;3.15;2.08;;;;;;;;;;5063438;28;20134;-82
2021/01/11 05:06:48;;;;;;;4.35;2.60;;;;;;;;;;5063991;28;20044;-82
2021/01/11 05:09:16;;;;;;;3.20;1.83;;;;;;;;;;5067666;28;20054;-81
2021/01/11 05:11:44;;;;;;;4.22;2.55;;;;;;;;;;5066763;28;20131;-82
2021/01/11 05:14:16;;;;;;;4.05;2.10;;;;;;;;;;5068291;28;20059;-82
2021/01/11 05:16:57;;;;;;;2.85;1.90;;;;;;;;;;5066132;28;20048;-82
2021/01/11 05:19:24;;;;;;;3.80;1.98;;;;;;;;;;5066666;28;20076;-82
2021/01/11 05:21:52;;;;;;;3.60;2.35;;;;;;;;;;5064656;28;20056;-83
2021/01/11 05:24:27;;;;;;;2.58;1.90;;;;;;;;;;5061618;28;20037;-83
2021/01/11 05:26:53;;;;;;;3.47;1.88;;;;;;;;;;5069917;28;20050;-81
2021/01/11 05:29:19;;;;;;;3.10;1.85;;;;;;;;;;5068489;28;20490;-81
2021/01/11 05:31:55;;;;;;;3.50;2.00;;;;;;;;;;5064833;28;20091;-81
2021/01/11 05:34:24;;;;;;;3.03;1.73;;;;;;;;;;5068640;28;20143;-78
2021/01/11 05:36:50;;;;;;;2.78;1.63;;;;;;;;;;5070295;28;20131;-78
2021/01/11 05:39:24;;;;;;;2.95;1.63;;;;;;;;;;5071164;28;20044;-82
2021/01/11 05:41:50;;;;;;;3.38;1.67;;;;;;;;;;5060822;28;20053;-80
2021/01/11 05:44:16;;;;;;;4.93;2.13;;;;;;;;;;5062717;28;20056;-81
2021/01/11 05:46:45;;;;;;;2.85;1.50;;;;;;;;;;5065689;28;20414;-80
2021/01/11 05:49:14;;;;;;;3.20;1.92;;;;;;;;;;5070128;28;22051;-79
2021/01/11 05:51:40;;;;;;;3.13;1.98;;;;;;;;;;5065038;28;20069;-81
2021/01/11 05:54:23;;;;;;;3.53;1.83;;;;;;;;;;5068691;28;20048;-81
2021/01/11 05:56:52;;;;;;;3.72;1.70;;;;;;;;;;5069354;28;20921;-80
2021/01/11 05:59:18;;;;;;;3.63;1.83;;;;;;;;;;5064271;28;20103;-81
2021/01/11 06:01:45;;;;;;;3.75;1.70;;;;;;;;;;5064566;28;20114;-83
2021/01/11 06:04:11;;;;;;;3.88;1.50;;;;;;;;;;5066827;28;20055;-79
2021/01/11 06:06:38;;;;;;;3.88;1.70;;;;;;;;;;5057947;28;20479;-79
2021/01/11 06:09:05;;;;;;;2.25;1.52;;;;;;;;;;5065419;28;20573;-77
2021/01/11 06:11:34;;;;;;;3.78;1.60;;;;;;;;;;5066452;28;20071;-79
2021/01/11 06:14:01;;;;;;;1.83;1.20;;;;;;;;;;5066203;28;20128;-80
2021/01/11 06:16:28;;;;;;;3.33;1.70;;;;;;;;;;5061465;28;20052;-80
2021/01/11 06:18:55;;;;;;;3.00;1.63;;;;;;;;;;5066271;28;20102;-81
2021/01/11 06:21:21;;;;;;;2.30;1.48;;;;;;;;;;5067536;28;20051;-82
2021/01/11 06:23:48;;;;;;;2.72;1.70;;;;;;;;;;5068192;28;20421;-78
2021/01/11 06:26:26;;;;;;;3.00;1.45;;;;;;;;;;5060299;28;20061;-81
2021/01/11 06:28:56;;;;;;;1.80;1.30;;;;;;;;;;5067273;28;20469;-80
2021/01/11 06:31:26;;;;;;;2.92;1.67;;;;;;;;;;5064542;28;20567;-77
2021/01/11 06:33:53;;;;;;;3.10;1.63;;;;;;;;;;5063174;28;20453;-79
2021/01/11 06:36:19;;;;;;;2.40;1.33;;;;;;;;;;5069794;28;20040;-78
2021/01/11 06:38:46;;;;;;;3.75;1.08;;;;;;;;;;5063068;28;20548;-77
2021/01/11 06:41:13;;;;;;;2.22;1.27;;;;;;;;;;5063787;28;20055;-77
2021/01/11 06:43:45;;;;;;;2.85;1.30;;;;;;;;;;5064768;28;20051;-77
2021/01/11 06:46:12;;;;;;;2.08;1.23;;;;;;;;;;5067894;28;20410;-77
2021/01/11 06:48:40;;;;;;;2.42;1.77;;;;;;;;;;5063387;28;20049;-77
2021/01/11 06:51:07;;;;;;;3.13;1.45;;;;;;;;;;5064789;28;20052;-76
2021/01/11 06:53:34;;;;;;;2.58;1.40;;;;;;;;;;5065429;28;20071;-82
2021/01/11 06:56:03;;;;;;;3.15;1.50;;;;;;;;;;5067179;28;20781;-82
2021/01/11 06:58:31;;;;;;;5.07;2.70;;;;;;;;;;5065919;28;20044;-85
2021/01/11 07:01:04;;;;;;;4.80;3.17;;;;;;;;;;5058211;28;20525;-80
2021/01/11 07:03:48;;;;;;;4.47;3.10;;;;;;;;;;5065587;28;20040;-82
2021/01/11 07:06:33;;;;;;;6.82;3.80;;;;;;;;;;5062746;28;20063;-75
2021/01/11 07:09:12;;;;;;;5.93;3.33;;;;;;;;;;5055474;28;20139;-73
2021/01/11 07:11:51;;;;;;;5.80;3.83;;;;;;;;;;5058613;28;20045;-79
2021/01/11 07:14:23;;;;;;;5.15;3.03;;;;;;;;;;5061625;28;20131;-73
2021/01/11 07:16:51;;;;;;;6.10;3.65;;;;;;;;;;5066536;28;20055;-75
2021/01/11 07:19:44;;;;;;;5.90;4.18;;;;;;;;;;5077928;28;20052;-73
2021/01/11 07:22:10;;;;;;;12.20;3.88;;;;;;;;;;5059314;28;20498;-76
2021/01/11 07:24:40;;;;;;;4.60;2.95;;;;;;;;;;5063068;28;20422;-75
2021/01/11 07:27:07;;;;;;;5.72;3.80;;;;;;;;;;5058690;28;20076;-85
2021/01/11 07:29:33;;;;;;;6.63;3.55;;;;;;;;;;5063399;28;20036;-81
2021/01/11 07:32:02;;;;;;;5.35;3.55;;;;;;;;;;5066827;28;20083;-74
2021/01/11 07:34:28;;;;;;;5.35;2.97;;;;;;;;;;5063174;28;20063;-74
2021/01/11 07:36:55;;;;;;;4.28;2.47;;;;;;;;;;5064197;28;20135;-71
2021/01/11 07:39:21;;;;;;;10.02;2.97;;;;;;;;;;5061606;28;20040;-73
2021/01/11 07:42:03;;;;;;;6.10;3.25;;;;;;;;;;5063213;28;20075;-72
2021/01/11 07:44:33;;;;;;;4.35;2.80;;;;;;;;;;5054927;28;20067;-75
2021/01/11 07:47:18;;;;;;;3.40;2.80;;;;;;;;;;5065668;28;20553;-82
2021/01/11 07:49:50;;;;;;;8.73;3.15;;;;;;;;;;5061696;28;20169;-75
2021/01/11 07:52:17;;;;;;;6.53;2.60;;;;;;;;;;5065812;28;20490;-76
2021/01/11 07:54:44;;;;;;;7.93;3.58;;;;;;;;;;5055775;28;20612;-77
2021/01/11 07:57:14;;;;;;;4.28;2.88;;;;;;;;;;5063056;28;20167;-77
2021/01/11 07:59:41;;;;;;;8.23;4.05;;;;;;;;;;5064279;28;20482;-77
2021/01/11 08:02:11;;;;;;;8.10;4.47;;;;;;;;;;5060787;28;20044;-76
2021/01/11 08:04:38;;;;;;;14.90;4.95;;;;;;;;;;5062165;28;20059;-80
2021/01/11 08:07:07;;;;;;;12.48;4.97;;;;;;;;;;5063767;28;20044;-90
2021/01/11 08:09:34;;;;;;;15.77;5.13;;;;;;;;;;5063393;28;20155;-80
2021/01/11 08:12:14;;;;;;;13.10;5.43;;;;;;;;;;5062769;28;20064;-81
2021/01/11 08:14:43;;;;;;;8.20;4.82;;;;;;;;;;5062062;28;20045;-86
2021/01/11 08:17:25;;;;;;;10.43;5.10;;;;;;;;;;5067862;28;20432;-85
2021/01/11 08:19:58;;;;;;;6.50;4.03;;;;;;;;;;5057174;28;20094;-86
2021/01/11 08:22:28;;;;;;;9.57;4.70;;;;;;;;;;5061055;28;20076;-86
2021/01/11 08:24:55;;;;;;;7.90;4.68;;;;;;;;;;5061371;28;20049;-83
2021/01/11 08:27:32;;;;;;;8.77;4.03;;;;;;;;;;5067549;28;20048;-83
2021/01/11 08:30:01;;;;;;;7.70;4.03;;;;;;;;;;5064220;28;20128;-84
2021/01/11 08:32:27;;;;;;;6.43;3.72;;;;;;;;;;5059902;28;20128;-85
2021/01/11 08:34:55;;;;;;;6.10;3.83;;;;;;;;;;5066493;28;20044;-82
2021/01/11 08:37:27;;;;;;;6.72;3.88;;;;;;;;;;5060983;28;20044;-84
2021/01/11 08:39:55;;;;;;;4.53;3.03;;;;;;;;;;5070158;28;20051;-87
2021/01/11 08:42:23;;;;;;;5.03;3.30;;;;;;;;;;5067291;28;20114;-85
2021/01/11 08:44:50;;;;;;;5.03;3.30;;;;;;;;;;5070505;28;20052;-85
2021/01/11 08:47:24;;;;;;;4.38;3.25;;;;;;;;;;5066446;28;20072;-86
2021/01/11 08:50:02;;;;;;;5.65;3.38;;;;;;;;;;5069058;28;20053;-81
2021/01/11 08:52:33;;;;;;;5.25;3.38;;;;;;;;;;5069083;28;20083;-85
2021/01/11 08:55:09;;;;;;;4.30;2.97;;;;;;;;;;5068053;28;20494;-84
2021/01/11 08:57:37;;;;;;;6.78;3.03;;;;;;;;;;5079335;28;20474;-84
2021/01/11 09:00:08;;;;;;;6.05;2.70;;;;;;;;;;5065456;28;20131;-84
2021/01/11 09:02:34;;;;;;;7.15;3.47;;;;;;;;;;5065564;28;20072;-86
2021/01/11 09:05:23;;;;;;;4.82;2.60;;;;;;;;;;5067672;28;20055;-85
2021/01/11 09:07:51;;;;;;;5.50;3.10;;;;;;;;;;5066619;28;20052;-83
2021/01/11 09:10:17;;;;;;;4.97;2.90;;;;;;;;;;5068829;28;20041;-88
2021/01/11 09:12:46;;;;;;;4.95;2.53;;;;;;;;;;5068910;28;20144;-84
2021/01/11 09:15:13;;;;;;;4.10;2.85;;;;;;;;;;5070675;28;20049;-86
2021/01/11 09:17:39;;;;;;;5.03;2.90;;;;;;;;;;5067984;28;20056;-85
2021/01/11 09:20:08;;;;;;;6.15;2.58;;;;;;;;;;5069397;28;20048;-86
2021/01/11 09:22:37;;;;;;;5.88;2.67;;;;;;;;;;5066487;28;20083;-87
2021/01/11 09:25:05;;;;;;;5.05;2.88;;;;;;;;;;5064147;28;20133;-93
2021/01/11 09:27:35;;;;;;;4.80;2.47;;;;;;;;;;5065457;28;20145;-88
2021/01/11 09:30:01;;;;;;;3.95;2.50;;;;;;;;;;5068891;28;20163;-91
2021/01/11 09:32:27;;;;;;;2.72;2.17;;;;;;;;;;5068264;28;20076;-93
2021/01/11 09:35:00;;;;;;;3.38;2.10;;;;;;;;;;5070923;28;20051;-92
2021/01/11 09:37:26;;;;;;;3.90;2.20;;;;;;;;;;5062224;28;20098;-94
2021/01/11 09:39:52;;;;;;;3.80;2.50;;;;;;;;;;5062110;28;20070;-91
2021/01/11 09:42:22;;;;;;;4.10;2.35;;;;;;;;;;5064499;28;20068;-83
2021/01/11 09:44:48;;;;;;;4.07;2.42;;;;;;;;;;5068572;28;20045;-80
2021/01/11 09:47:14;;;;;;;4.10;2.10;;;;;;;;;;5063622;28;20421;-80
2021/01/11 09:49:41;;;;;;;4.07;2.05;;;;;;;;;;5065196;28;20066;-80
2021/01/11 09:52:10;;;;;;;3.50;2.03;;;;;;;;;;5070313;28;20454;-81
2021/01/11 09:54:36;;;;;;;3.97;2.45;;;;;;;;;;5066802;28;20053;-81
2021/01/11 09:57:04;;;;;;;3.60;2.15;;;;;;;;;;5062122;28;20059;-80
2021/01/11 09:59:31;;;;;;;4.97;2.50;;;;;;;;;;5061807;28;20508;-79
2021/01/11 10:01:57;;;;;;;3.35;2.20;;;;;;;;;;5066199;28;20131;-80
2021/01/11 10:04:24;;;;;;;4.10;2.22;;;;;;;;;;5070367;28;20399;-79
2021/01/11 10:06:52;;;;;;;3.47;2.45;;;;;;;;;;5067883;28;20117;-79
2021/01/11 10:09:25;;;;;;;3.35;2.00;;;;;;;;;;5078791;28;20658;-79
2021/01/11 10:11:55;;;;;;;3.78;2.83;;;;;;;;;;5067503;28;20044;-80
2021/01/11 10:14:21;;;;;;;4.20;2.60;;;;;;;;;;5056891;28;20090;-80
2021/01/11 10:16:50;;;;;;;3.83;2.20;;;;;;;;;;5067681;28;20041;-79
2021/01/11 10:19:18;;;;;;;3.28;2.00;;;;;;;;;;5062048;28;20063;-78
2021/01/11 10:21:44;;;;;;;4.25;2.00;;;;;;;;;;5061793;28;20506;-80
2021/01/11 10:24:11;;;;;;;4.15;2.58;;;;;;;;;;5059286;28;20068;-79
2021/01/11 10:26:45;;;;;;;3.53;2.38;;;;;;;;;;5064774;28;20048;-80
2021/01/11 10:29:12;;;;;;;3.88;2.55;;;;;;;;;;5065025;28;20048;-79
2021/01/11 10:31:40;;;;;;;3.58;2.10;;;;;;;;;;5068874;28;20076;-78
2021/01/11 10:34:10;;;;;;;3.33;2.17;;;;;;;;;;5064072;28;20406;-77
2021/01/11 10:36:37;;;;;;;3.78;2.53;;;;;;;;;;5057593;28;20055;-77
2021/01/11 10:39:07;;;;;;;2.78;1.95;;;;;;;;;;5067818;28;20414;-78
2021/01/11 10:41:34;;;;;;;3.45;2.33;;;;;;;;;;5067580;28;20060;-77
2021/01/11 10:44:03;;;;;;;3.65;2.33;;;;;;;;;;5067827;28;20898;-78
2021/01/11 10:46:29;;;;;;;3.55;2.08;;;;;;;;;;5063617;28;20136;-77
2021/01/11 10:48:55;;;;;;;4.47;2.33;;;;;;;;;;5067754;28;20041;-77
2021/01/11 10:51:25;;;;;;;5.03;2.88;;;;;;;;;;5066645;28;20152;-79
2021/01/11 10:53:51;;;;;;;4.13;2.33;;;;;;;;;;5063046;28;20051;-79
2021/01/11 10:56:18;;;;;;;3.60;2.28;;;;;;;;;;5073221;28;20057;-79
2021/01/11 10:58:44;;;;;;;6.72;2.55;;;;;;;;;;5063428;28;20545;-79
2021/01/11 11:01:14;;;;;;;5.00;3.40;;;;;;;;;;5067583;28;20048;-79
2021/01/11 11:03:40;;;;;;;5.43;3.00;;;;;;;;;;5068850;28;20506;-79
2021/01/11 11:06:07;;;;;;;4.15;2.55;;;;;;;;;;5068276;28;20473;-79
2021/01/11 11:08:33;;;;;;;6.25;2.63;;;;;;;;;;5061178;28;20135;-79
2021/01/11 11:11:03;;;;;;;;;;;;;;;;;;5064126;28;20142;-79
2021/01/11 11:13:30;;;;;;;4.43;2.50;;;;;;;;;;5068527;28;20439;-79
2021/01/11 11:15:57;;;;;;;5.25;2.78;;;;;;;;;;5066836;28;20552;-79
2021/01/11 11:18:24;;;;;;;3.55;2.40;;;;;;;;;;5062237;28;20481;-80
2021/01/11 11:20:50;;;;;;;4.40;3.17;;;;;;;;;;5058851;28;20487;-78
2021/01/11 11:23:19;;;;;;;5.63;3.30;;;;;;;;;;5060534;28;20135;-78
2021/01/11 11:25:45;;;;;;;5.75;3.20;;;;;;;;;;5059145;28;20059;-77
2021/01/11 11:28:20;;;;;;;5.20;2.88;;;;;;;;;;5060857;28;20055;-78
2021/01/11 11:30:46;;;;;;;3.63;2.42;;;;;;;;;;5064703;28;20048;-78
2021/01/11 11:33:13;;;;;;;5.95;3.58;;;;;;;;;;5057077;28;20052;-78
2021/01/11 11:35:41;;;;;;;5.10;2.63;;;;;;;;;;5062399;28;20048;-78
2021/01/11 11:38:10;;;;;;;4.15;2.72;;;;;;;;;;5061001;28;20558;-78
2021/01/11 11:40:37;;;;;;;5.38;3.03;;;;;;;;;;5057140;28;20076;-78
2021/01/11 11:43:11;;;;;;;4.30;2.70;;;;;;;;;;5059319;28;20112;-78
2021/01/11 11:45:38;;;;;;;3.67;2.53;;;;;;;;;;5062080;28;20040;-78
2021/01/11 11:48:04;;;;;;;7.65;3.50;;;;;;;;;;5063315;28;20056;-78
2021/01/11 11:50:34;;;;;;;5.57;3.00;;;;;;;;;;5062574;28;20056;-78
2021/01/11 11:53:00;;;;;;;3.75;2.65;;;;;;;;;;5061741;28;20143;-78
2021/01/11 11:55:26;;;;;;;4.85;2.72;;;;;;;;;;5062432;28;20080;-78
2021/01/11 11:57:54;;;;;;;4.10;2.65;;;;;;;;;;5062406;28;20053;-78
2021/01/11 12:00:23;;;;;;;6.32;3.05;;;;;;;;;;5060526;28;20435;-79
2021/01/11 12:03:09;;;;;;;6.13;2.65;;;;;;;;;;5064040;28;20099;-78
2021/01/11 12:05:35;;;;;;;3.72;2.63;;;;;;;;;;5063513;28;20515;-78
2021/01/11 12:08:01;;;;;;;5.20;2.40;;;;;;;;;;5061390;28;20502;-77
2021/01/11 12:10:27;;;;;;;4.15;2.28;;;;;;;;;;5062506;28;20049;-78
2021/01/11 12:12:55;;;;;;;4.60;2.53;;;;;;;;;;5063994;28;20055;-78
2021/01/11 12:15:22;;;;;;;5.25;2.95;;;;;;;;;;5061929;28;20059;-79
2021/01/11 12:17:49;;;;;;;4.25;2.55;;;;;;;;;;5060223;28;20398;-79
2021/01/11 12:20:15;;;;;;;4.85;2.88;;;;;;;;;;5055394;28;20131;-80
2021/01/11 12:22:42;;;;;;;4.97;3.13;;;;;;;;;;5062176;28;20137;-79
2021/01/11 12:25:11;;;;;;;6.25;2.38;;;;;;;;;;5064040;28;20052;-79
2021/01/11 12:27:43;;;;;;;5.25;2.60;;;;;;;;;;5063168;28;20086;-78
2021/01/11 12:30:09;;;;;;;4.57;3.13;;;;;;;;;;5062848;28;20418;-79
2021/01/11 12:32:36;;;;;;;4.32;2.85;;;;;;;;;;5061886;28;20151;-77
2021/01/11 12:35:05;;;;;;;3.97;2.13;;;;;;;;;;5061311;28;20061;-79
2021/01/11 12:37:33;;;;;;;3.55;2.55;;;;;;;;;;5065502;28;20494;-78
2021/01/11 12:40:01;;;;;;;;;;;;;;;;;;5062414;28;20442;-79
2021/01/11 12:42:27;;;;;;;4.78;2.58;;;;;;;;;;5061113;28;20431;-78
2021/01/11 12:44:53;;;;;;;4.90;2.97;;;;;;;;;;5060578;28;20124;-77
2021/01/11 12:47:19;;;;;;;4.50;2.75;;;;;;;;;;5064233;28;20102;-77
2021/01/11 12:49:49;;;;;;;5.85;3.30;;;;;;;;;;5060009;28;20051;-78
2021/01/11 12:52:15;;;;;;;;;;;;;;;;;;5063011;28;20172;-79
2021/01/11 12:54:42;;;;;;;7.13;4.32;;;;;;;;;;5064451;28;19920;-79
2021/01/11 12:57:08;;;;;;;9.85;4.85;;;;;;;;;;5058529;28;20052;-79
2021/01/11 12:59:35;;;;;;;10.55;5.13;;;;;;;;;;5062871;28;20120;-78
2021/01/11 13:02:01;;;;;;;15.35;5.60;;;;;;;;;;5062604;28;20433;-78
2021/01/11 13:04:28;;;;;;;12.75;6.10;;;;;;;;;;5061461;28;20041;-78
2021/01/11 13:06:54;;;;;;;17.58;7.88;;;;;;;;;;5059652;28;20721;-78
2021/01/11 13:09:20;;;;;;;15.05;7.35;;;;;;;;;;5059164;28;20044;-78
2021/01/11 13:11:47;;;;;;;17.23;7.97;;;;;;;;;;5060399;28;20493;-77
2021/01/11 13:14:17;;;;;;;13.82;7.50;;;;;;;;;;5064394;28;20131;-77
2021/01/11 13:16:43;;;;;;;16.27;9.43;;;;;;;;;;5063591;28;20408;-76
2021/01/11 13:19:10;;;;;;;17.75;8.52;;;;;;;;;;5060489;28;20570;-76
2021/01/11 13:21:37;;;;;;;16.20;8.85;;;;;;;;;;5065173;28;20094;-77
2021/01/11 13:24:11;;;;;;;17.30;8.07;;;;;;;;;;5057692;28;20044;-76
2021/01/11 13:26:39;;;;;;;18.50;8.25;;;;;;;;;;5061631;28;20044;-78
2021/01/11 13:29:07;;;;;;;16.65;7.95;;;;;;;;;;5067681;28;20052;-77
2021/01/11 13:31:33;;;;;;;18.80;8.70;;;;;;;;;;5059442;28;20131;-78
2021/01/11 13:34:02;;;;;;;18.93;8.00;;;;;;;;;;5064534;28;20051;-77
2021/01/11 13:36:34;;;;;;;18.48;7.85;;;;;;;;;;5063504;28;20324;-77
2021/01/11 13:39:01;;;;;;;15.93;8.38;;;;;;;;;;5067884;28;20414;-77
2021/01/11 13:41:37;;;;;;;12.77;7.50;;;;;;;;;;5064823;28;20051;-77
2021/01/11 13:44:05;;;;;;;20.42;8.05;;;;;;;;;;5067171;28;20057;-78
2021/01/11 13:46:33;;;;;;;18.25;8.60;;;;;;;;;;5066141;28;20048;-78
2021/01/11 13:48:59;;;;;;;14.80;7.50;;;;;;;;;;5059971;28;20508;-77
2021/01/11 13:51:25;;;;;;;14.45;6.85;;;;;;;;;;5064708;28;20123;-77
2021/01/11 13:53:54;;;;;;;18.52;7.50;;;;;;;;;;5067379;28;20052;-77
2021/01/11 13:56:24;;;;;;;14.50;6.88;;;;;;;;;;5064741;28;20045;-77
2021/01/11 13:58:53;;;;;;;14.18;7.38;;;;;;;;;;5063207;28;20131;-77
2021/01/11 14:01:22;;;;;;;11.27;6.63;;;;;;;;;;5068283;28;20490;-77
2021/01/11 14:03:50;;;;;;;15.93;7.28;;;;;;;;;;5063103;28;20504;-77
2021/01/11 14:06:26;;;;;;;15.60;6.68;;;;;;;;;;5060806;28;20469;-77
2021/01/11 14:08:55;;;;;;;13.57;6.10;;;;;;;;;;5065486;28;20051;-77
2021/01/11 14:11:23;;;;;;;19.15;7.95;;;;;;;;;;5066158;28;20055;-77
2021/01/11 14:13:53;;;;;;;14.48;6.60;;;;;;;;;;5059999;28;20056;-77
2021/01/11 14:16:21;;;;;;;10.60;6.03;;;;;;;;;;5063422;28;20512;-75
2021/01/11 14:18:50;;;;;;;12.77;6.18;;;;;;;;;;5061464;28;20428;-75
2021/01/11 14:21:17;;;;;;;10.90;5.75;;;;;;;;;;5062158;28;20889;-76
2021/01/11 14:23:44;;;;;;;13.48;6.05;;;;;;;;;;5061411;28;20047;-74
2021/01/11 14:26:11;;;;;;;10.88;6.13;;;;;;;;;;5063953;28;20405;-74
2021/01/11 14:28:39;;;;;;;11.63;6.60;;;;;;;;;;5066865;28;20074;-76
2021/01/11 14:31:07;;;;;;;11.18;5.13;;;;;;;;;;5065582;28;20048;-76
2021/01/11 14:33:37;;;;;;;12.20;5.47;;;;;;;;;;5063870;28;20460;-75
2021/01/11 14:36:03;;;;;;;;;;;;;;;;;;5064089;28;20142;-75
2021/01/11 14:38:30;;;;;;;35.47;10.75;;;;;;;;;;5063404;28;20065;-75
2021/01/11 14:40:58;;;;;;;44.60;13.27;;;;;;;;;;5063084;28;20040;-75
2021/01/11 14:43:24;;;;;;;35.10;12.30;;;;;;;;;;5063135;28;20049;-75
2021/01/11 14:46:02;;;;;;;45.42;11.52;;;;;;;;;;5064475;28;20048;-76
2021/01/11 14:48:28;;;;;;;43.42;12.43;;;;;;;;;;5067455;28;20052;-75
2021/01/11 14:51:00;;;;;;;25.87;9.77;;;;;;;;;;5065912;28;20040;-75